createdAt,value
2023-02-11T00:01:30.248Z,35.45
2023-02-11T00:04:00.338Z,40.50
2023-02-11T00:06:31.918Z,37.60
2023-02-11T00:09:00.843Z,34.92
2023-02-11T00:11:30.777Z,32.35
2023-02-11T00:14:00.366Z,34.03
2023-02-11T00:16:29.400Z,33.85
2023-02-11T00:18:58.806Z,35.35
2023-02-11T00:21:29.363Z,38.92
2023-02-11T00:24:00.297Z,28.48
2023-02-11T00:26:32.470Z,32.55
2023-02-11T00:29:02.116Z,37.15
2023-02-11T00:31:33.295Z,43.53
2023-02-11T00:34:01.771Z,46.38
2023-02-11T00:36:31.990Z,38.30
2023-02-11T00:39:01.225Z,33.78
2023-02-11T00:41:30.089Z,33.75
2023-02-11T00:44:01.046Z,36.85
2023-02-11T00:46:29.902Z,39.22
2023-02-11T00:48:58.306Z,36.83
2023-02-11T00:51:28.751Z,27.88
2023-02-11T00:53:59.236Z,30.27
2023-02-11T00:56:28.240Z,32.13
2023-02-11T00:58:57.789Z,29.67
2023-02-11T01:01:26.846Z,36.40
2023-02-11T01:03:55.237Z,30.23
2023-02-11T01:06:25.229Z,28.90
2023-02-11T01:08:53.549Z,32.25
2023-02-11T01:11:25.053Z,30.65
2023-02-11T01:13:53.656Z,37.63
2023-02-11T01:16:23.474Z,33.08
2023-02-11T01:18:53.662Z,29.10
2023-02-11T01:21:22.067Z,29.13
2023-02-11T01:23:53.489Z,42.47
2023-02-11T01:26:23.145Z,30.48
2023-02-11T01:28:51.960Z,31.05
2023-02-11T01:31:21.307Z,30.17
2023-02-11T01:33:50.253Z,38.45
2023-02-11T01:36:18.621Z,29.33
2023-02-11T01:38:46.917Z,31.60
2023-02-11T01:41:15.965Z,35.03
2023-02-11T01:43:48.973Z,32.33
2023-02-11T01:46:29.795Z,35.00
2023-02-11T01:49:05.695Z,34.40
2023-02-11T01:51:39.992Z,31.90
2023-02-11T01:54:30.220Z,28.90
2023-02-11T01:57:18.817Z,30.67
2023-02-11T01:59:58.237Z,39.15
2023-02-11T02:02:35.931Z,33.65
2023-02-11T02:05:18.870Z,34.53
2023-02-11T02:07:57.691Z,33.40
2023-02-11T02:10:28.904Z,25.45
2023-02-11T02:12:57.764Z,28.33
2023-02-11T02:15:31.139Z,26.85
2023-02-11T02:18:06.972Z,36.58
2023-02-11T02:21:30.722Z,26.08
2023-02-11T02:24:39.740Z,34.22
2023-02-11T02:27:33.445Z,30.23
2023-02-11T02:30:37.117Z,30.33
2023-02-11T02:33:22.932Z,38.28
2023-02-11T02:36:05.435Z,25.50
2023-02-11T02:38:39.630Z,37.72
2023-02-11T02:41:11.604Z,33.75
2023-02-11T02:43:45.497Z,29.88
2023-02-11T02:46:17.335Z,36.13
2023-02-11T02:48:49.514Z,27.70
2023-02-11T02:51:35.733Z,28.67
2023-02-11T02:54:30.526Z,32.33
2023-02-11T02:57:11.146Z,30.13
2023-02-11T02:59:59.017Z,23.05
2023-02-11T03:02:33.010Z,31.48
2023-02-11T03:05:09.836Z,31.63
2023-02-11T03:07:45.588Z,35.90
2023-02-11T03:10:20.406Z,27.77
2023-02-11T03:12:51.039Z,29.13
2023-02-11T03:17:53.340Z,32.20
2023-02-11T03:20:24.454Z,28.65
2023-02-11T03:22:57.049Z,31.25
2023-02-11T03:25:31.656Z,37.97
2023-02-11T03:28:10.433Z,33.42
2023-02-11T03:30:47.035Z,29.55
2023-02-11T03:33:25.501Z,32.15
2023-02-11T03:35:58.197Z,30.13
2023-02-11T03:38:32.048Z,28.83
2023-02-11T03:41:02.028Z,28.55
2023-02-11T03:43:36.800Z,31.92
2023-02-11T03:46:06.278Z,30.65
2023-02-11T03:48:40.136Z,30.02
2023-02-11T03:51:12.820Z,32.15
2023-02-11T03:53:44.593Z,33.90
2023-02-11T03:56:19.952Z,26.77
2023-02-11T03:58:49.589Z,33.20
2023-02-11T04:01:18.272Z,32.42
2023-02-11T04:03:46.754Z,30.52
2023-02-11T04:06:19.324Z,30.27
2023-02-11T04:08:47.895Z,31.90
2023-02-11T04:11:17.612Z,31.80
2023-02-11T04:13:46.081Z,30.65
2023-02-11T04:16:14.634Z,32.10
2023-02-11T04:18:43.145Z,31.48
2023-02-11T04:21:11.663Z,30.90
2023-02-11T04:23:41.584Z,28.58
2023-02-11T04:26:10.103Z,37.70
2023-02-11T04:28:38.640Z,40.25
2023-02-11T04:31:07.426Z,35.38
2023-02-11T04:33:35.969Z,38.85
2023-02-11T04:36:07.664Z,39.70
2023-02-11T04:38:36.252Z,33.65
2023-02-11T04:41:06.642Z,33.10
2023-02-11T04:43:34.988Z,31.83
2023-02-11T04:46:03.461Z,37.03
2023-02-11T04:48:32.161Z,36.47
2023-02-11T04:51:00.652Z,33.42
2023-02-11T04:53:29.018Z,39.88
2023-02-11T04:55:57.432Z,39.78
2023-02-11T04:58:27.300Z,38.03
2023-02-11T05:00:55.874Z,39.45
2023-02-11T05:03:24.321Z,39.13
2023-02-11T05:05:53.102Z,39.28
2023-02-11T05:08:21.682Z,45.15
2023-02-11T05:10:50.126Z,44.42
2023-02-11T05:13:18.567Z,41.65
2023-02-11T05:15:50.854Z,46.15
2023-02-11T05:18:19.702Z,42.55
2023-02-11T05:20:48.059Z,39.83
2023-02-11T05:23:16.617Z,43.72
2023-02-11T05:25:45.149Z,45.20
2023-02-11T05:28:13.559Z,46.75
2023-02-11T05:30:42.177Z,38.15
2023-02-11T05:33:12.131Z,42.15
2023-02-11T05:35:40.549Z,42.53
2023-02-11T05:38:09.137Z,47.45
2023-02-11T05:40:37.653Z,38.72
2023-02-11T05:43:06.110Z,49.70
2023-02-11T05:45:35.271Z,44.53
2023-02-11T05:48:03.811Z,44.47
2023-02-11T05:50:33.585Z,43.70
2023-02-11T05:53:02.095Z,43.97
2023-02-11T05:55:30.579Z,41.17
2023-02-11T05:57:59.041Z,53.63
2023-02-11T06:00:28.225Z,52.63
2023-02-11T06:02:56.884Z,54.10
2023-02-11T06:05:27.454Z,45.92
2023-02-11T06:08:00.942Z,52.47
2023-02-11T06:10:29.628Z,45.47
2023-02-11T06:12:58.094Z,52.25
2023-02-11T06:15:26.660Z,50.65
2023-02-11T06:17:58.330Z,51.28
2023-02-11T06:20:26.946Z,48.78
2023-02-11T06:22:55.623Z,45.67
2023-02-11T06:25:25.573Z,44.88
2023-02-11T06:27:54.085Z,47.58
2023-02-11T06:30:22.630Z,45.20
2023-02-11T06:32:51.253Z,43.47
2023-02-11T06:35:20.092Z,44.83
2023-02-11T06:37:49.694Z,45.47
2023-02-11T06:40:18.488Z,47.40
2023-02-11T06:42:48.348Z,40.47
2023-02-11T06:45:16.984Z,42.83
2023-02-11T06:47:45.800Z,40.92
2023-02-11T06:50:16.046Z,43.28
2023-02-11T06:52:44.477Z,44.67
2023-02-11T06:55:13.056Z,43.17
2023-02-11T06:57:41.618Z,41.45
2023-02-11T07:00:15.515Z,45.55
2023-02-11T07:02:45.169Z,40.40
2023-02-11T07:05:13.562Z,42.72
2023-02-11T07:07:42.101Z,46.10
2023-02-11T07:10:11.009Z,40.05
2023-02-11T07:12:39.695Z,43.58
2023-02-11T07:15:09.110Z,41.28
2023-02-11T07:17:39.104Z,34.13
2023-02-11T07:20:09.164Z,41.20
2023-02-11T07:22:37.669Z,40.45
2023-02-11T07:25:09.627Z,44.45
2023-02-11T07:27:38.288Z,43.95
2023-02-11T07:30:08.074Z,44.22
2023-02-11T07:32:38.018Z,42.08
2023-02-11T07:35:07.609Z,39.38
2023-02-11T07:37:36.407Z,42.90
2023-02-11T07:40:05.833Z,44.38
2023-02-11T07:42:36.355Z,42.70
2023-02-11T07:45:05.208Z,34.38
2023-02-11T07:47:39.606Z,33.55
2023-02-11T07:50:12.333Z,35.53
2023-02-11T07:52:41.276Z,29.27
2023-02-11T07:55:10.359Z,38.70
2023-02-11T07:57:41.672Z,38.63
2023-02-11T08:00:15.289Z,42.13
2023-02-11T08:02:45.197Z,45.85
2023-02-11T08:05:14.810Z,38.17
2023-02-11T08:07:43.428Z,38.65
2023-02-11T08:10:12.053Z,43.03
2023-02-11T08:12:40.577Z,41.75
2023-02-11T08:15:10.375Z,36.28
2023-02-11T08:17:39.253Z,49.35
2023-02-11T08:20:10.174Z,41.83
2023-02-11T08:22:38.664Z,38.55
2023-02-11T08:25:09.772Z,35.28
2023-02-11T08:27:38.268Z,36.33
2023-02-11T08:30:08.467Z,36.22
2023-02-11T08:32:37.507Z,37.50
2023-02-11T08:35:13.683Z,36.58
2023-02-11T08:37:42.291Z,36.30
2023-02-11T08:40:16.584Z,36.33
2023-02-11T08:42:46.409Z,36.75
2023-02-11T08:45:14.972Z,35.42
2023-02-11T08:47:46.430Z,31.92
2023-02-11T08:50:16.514Z,31.83
2023-02-11T08:52:45.022Z,36.25
2023-02-11T08:55:13.552Z,29.95
2023-02-11T08:57:42.052Z,31.92
2023-02-11T09:00:12.775Z,33.55
2023-02-11T09:05:16.547Z,28.55
2023-02-11T09:07:45.147Z,28.10
2023-02-11T09:10:13.612Z,30.05
2023-02-11T09:12:42.535Z,26.10
2023-02-11T09:15:11.431Z,28.58
2023-02-11T09:17:39.903Z,31.35
2023-02-11T09:20:10.865Z,47.70
2023-02-11T09:22:42.821Z,30.48
2023-02-11T09:25:11.856Z,27.05
2023-02-11T09:27:40.400Z,26.30
2023-02-11T09:30:10.340Z,24.90
2023-02-11T09:32:39.019Z,25.20
2023-02-11T09:35:08.308Z,22.45
2023-02-11T09:37:41.137Z,23.27
2023-02-11T09:40:11.784Z,23.70
2023-02-11T09:42:49.768Z,25.45
2023-02-11T09:45:21.379Z,19.10
2023-02-11T09:47:54.430Z,25.63
2023-02-11T09:50:32.120Z,30.45
2023-02-11T09:53:06.119Z,25.00
2023-02-11T09:55:39.548Z,25.30
2023-02-11T09:58:14.526Z,23.35
2023-02-11T10:00:48.611Z,21.65
2023-02-11T10:03:45.646Z,24.33
2023-02-11T10:06:45.030Z,25.17
2023-02-11T10:09:32.338Z,26.02
2023-02-11T10:12:19.409Z,23.35
2023-02-11T10:15:07.627Z,24.35
2023-02-11T10:17:46.433Z,23.05
2023-02-11T10:20:27.745Z,27.50
2023-02-11T10:23:01.088Z,24.60
2023-02-11T10:25:39.005Z,24.17
2023-02-11T10:28:17.390Z,23.95
2023-02-11T10:30:58.972Z,30.90
2023-02-11T10:33:32.714Z,23.50
2023-02-11T10:36:01.749Z,27.98
2023-02-11T10:38:33.046Z,24.77
2023-02-11T10:41:05.159Z,25.27
2023-02-11T10:43:36.080Z,29.25
2023-02-11T10:46:07.074Z,26.60
2023-02-11T10:48:43.481Z,28.05
2023-02-11T10:51:22.970Z,27.38
2023-02-11T10:54:14.363Z,29.55
2023-02-11T10:56:52.175Z,32.03
2023-02-11T10:59:29.101Z,30.17
2023-02-11T11:02:01.443Z,31.98
2023-02-11T11:04:41.401Z,31.90
2023-02-11T11:07:18.096Z,36.07
2023-02-11T11:09:52.014Z,31.65
2023-02-11T11:12:42.255Z,29.08
2023-02-11T11:15:23.600Z,29.60
2023-02-11T11:17:53.203Z,31.05
2023-02-11T11:20:28.479Z,32.78
2023-02-11T11:23:17.732Z,30.90
2023-02-11T11:26:00.840Z,31.50
2023-02-11T11:28:36.640Z,31.90
2023-02-11T11:31:06.713Z,34.13
2023-02-11T11:33:37.239Z,33.63
2023-02-11T11:36:09.623Z,39.28
2023-02-11T11:38:45.314Z,32.17
2023-02-11T11:41:20.690Z,35.92
2023-02-11T11:43:59.504Z,30.63
2023-02-11T11:46:32.689Z,35.08
2023-02-11T11:49:23.550Z,51.63
2023-02-11T11:54:30.185Z,38.40
2023-02-11T11:57:03.954Z,35.42
2023-02-11T11:59:34.015Z,37.67
2023-02-11T12:02:38.382Z,35.55
2023-02-11T12:05:13.424Z,36.70
2023-02-11T12:07:59.177Z,41.70
2023-02-11T12:10:49.063Z,36.88
2023-02-11T12:13:30.745Z,43.45
2023-02-11T12:16:14.077Z,36.83
2023-02-11T12:19:14.047Z,37.88
2023-02-11T12:21:57.479Z,36.43
2023-02-11T12:24:47.012Z,36.05
2023-02-11T12:27:21.450Z,33.22
2023-02-11T12:30:04.038Z,35.28
2023-02-11T12:32:46.056Z,36.33
2023-02-11T12:35:33.564Z,33.05
2023-02-11T12:38:29.084Z,30.42
2023-02-11T12:41:40.683Z,33.22
2023-02-11T12:44:18.374Z,30.10
2023-02-11T12:46:51.839Z,31.00
2023-02-11T12:49:50.763Z,31.02
2023-02-11T12:52:40.186Z,30.38
2023-02-11T12:55:19.877Z,27.02
2023-02-11T12:57:51.804Z,26.35
2023-02-11T13:00:25.822Z,32.53
2023-02-11T13:03:02.533Z,26.17
2023-02-11T13:05:39.962Z,24.98
2023-02-11T13:08:17.441Z,24.83
2023-02-11T13:10:52.016Z,23.70
2023-02-11T13:13:26.874Z,29.27
2023-02-11T13:16:02.160Z,30.33
2023-02-11T13:18:49.338Z,21.65
2023-02-11T13:21:41.852Z,21.77
2023-02-11T13:24:23.669Z,22.92
2023-02-11T13:27:02.632Z,16.98
2023-02-11T13:29:41.033Z,21.58
2023-02-11T13:32:13.017Z,19.73
2023-02-11T13:35:00.002Z,17.65
2023-02-11T13:37:36.424Z,17.65
2023-02-11T13:40:08.997Z,18.15
2023-02-11T13:42:53.041Z,18.55
2023-02-11T13:45:32.319Z,16.20
2023-02-11T13:48:04.231Z,19.33
2023-02-11T13:50:39.391Z,15.07
2023-02-11T13:53:09.846Z,14.80
2023-02-11T13:55:46.444Z,14.93
2023-02-11T13:58:32.263Z,14.07
2023-02-11T14:01:01.146Z,13.70
2023-02-11T14:04:02.951Z,12.80
2023-02-11T14:07:03.856Z,14.60
2023-02-11T14:12:37.382Z,16.35
2023-02-11T14:15:27.397Z,14.15
2023-02-11T14:17:56.073Z,12.20
2023-02-11T14:20:43.378Z,15.68
2023-02-11T14:23:27.574Z,18.13
2023-02-11T14:26:33.767Z,12.93
2023-02-11T14:29:19.518Z,15.40
2023-02-11T14:31:59.040Z,20.02
2023-02-11T14:34:46.357Z,14.95
2023-02-11T14:37:37.669Z,13.50
2023-02-11T14:40:28.307Z,17.50
2023-02-11T14:43:14.146Z,18.55
2023-02-11T14:45:45.736Z,14.68
2023-02-11T14:48:19.072Z,17.60
2023-02-11T14:50:52.881Z,18.08
2023-02-11T14:53:27.942Z,18.30
2023-02-11T14:55:57.176Z,14.02
2023-02-11T14:58:29.587Z,16.13
2023-02-11T15:01:00.865Z,19.85
2023-02-11T15:03:36.414Z,19.90
2023-02-11T15:06:09.168Z,23.58
2023-02-11T15:08:47.074Z,16.95
2023-02-11T15:11:19.673Z,16.73
2023-02-11T15:13:52.102Z,18.33
2023-02-11T15:16:25.076Z,18.67
2023-02-11T15:18:56.492Z,21.98
2023-02-11T15:21:28.677Z,16.33
2023-02-11T15:24:00.111Z,19.17
2023-02-11T15:26:29.493Z,18.60
2023-02-11T15:28:59.598Z,12.13
2023-02-11T15:31:30.799Z,16.02
2023-02-11T15:34:08.960Z,14.82
2023-02-11T15:36:41.082Z,18.13
2023-02-11T15:39:29.119Z,14.35
2023-02-11T15:41:57.596Z,16.65
2023-02-11T15:44:33.192Z,13.52
2023-02-11T15:47:02.146Z,13.00
2023-02-11T15:49:30.724Z,18.58
2023-02-11T15:51:59.625Z,14.65
2023-02-11T15:54:32.082Z,16.77
2023-02-11T15:57:06.439Z,15.13
2023-02-11T15:59:40.413Z,14.02
2023-02-11T16:02:18.254Z,15.00
2023-02-11T16:04:52.563Z,14.50
2023-02-11T16:07:40.549Z,18.63
2023-02-11T16:10:25.667Z,16.60
2023-02-11T16:12:57.645Z,15.63
2023-02-11T16:15:49.666Z,15.35
2023-02-11T16:18:49.465Z,14.48
2023-02-11T16:21:36.216Z,14.32
2023-02-11T16:24:06.625Z,19.35
2023-02-11T16:26:40.991Z,22.48
2023-02-11T16:29:14.373Z,16.02
2023-02-11T16:31:47.362Z,13.52
2023-02-11T16:34:18.731Z,15.77
2023-02-11T16:36:48.286Z,14.63
2023-02-11T16:39:21.778Z,15.10
2023-02-11T16:41:51.683Z,16.30
2023-02-11T16:44:20.418Z,19.00
2023-02-11T16:46:50.530Z,20.45
2023-02-11T16:49:24.400Z,17.08
2023-02-11T16:51:56.898Z,14.70
2023-02-11T16:54:25.585Z,16.08
2023-02-11T16:56:54.135Z,15.90
2023-02-11T16:59:22.789Z,16.73
2023-02-11T17:01:54.544Z,15.63
2023-02-11T17:04:29.048Z,15.23
2023-02-11T17:06:58.593Z,15.05
2023-02-11T17:09:31.133Z,18.70
2023-02-11T17:12:00.210Z,18.05
2023-02-11T17:14:28.794Z,13.55
2023-02-11T17:16:59.204Z,14.30
2023-02-11T17:19:27.666Z,16.10
2023-02-11T17:21:56.213Z,17.35
2023-02-11T17:24:25.065Z,18.92
2023-02-11T17:26:56.940Z,16.95
2023-02-11T17:29:27.149Z,17.17
2023-02-11T17:31:56.003Z,15.50
2023-02-11T17:34:25.956Z,16.75
2023-02-11T17:36:54.388Z,14.43
2023-02-11T17:39:22.919Z,20.70
2023-02-11T17:41:52.603Z,15.73
2023-02-11T17:44:21.404Z,14.30
2023-02-11T17:46:49.785Z,19.50
2023-02-11T17:49:18.578Z,13.05
2023-02-11T17:51:51.421Z,17.85
2023-02-11T17:54:21.284Z,15.60
2023-02-11T17:56:50.868Z,17.27
2023-02-11T17:59:19.771Z,15.47
2023-02-11T18:01:49.362Z,16.92
2023-02-11T18:04:20.148Z,11.98
2023-02-11T18:06:50.374Z,16.60
2023-02-11T18:09:18.923Z,17.27
2023-02-11T18:11:48.465Z,14.57
2023-02-11T18:14:16.999Z,14.55
2023-02-11T18:16:46.453Z,14.02
2023-02-11T18:19:15.512Z,13.82
2023-02-11T18:21:44.183Z,15.93
2023-02-11T18:24:14.107Z,17.17
2023-02-11T18:26:43.088Z,18.23
2023-02-11T18:29:11.618Z,18.33
2023-02-11T18:31:40.450Z,16.40
2023-02-11T18:34:10.682Z,18.65
2023-02-11T18:36:39.556Z,17.17
2023-02-11T18:39:07.894Z,15.15
2023-02-11T18:41:40.034Z,15.88
2023-02-11T18:44:08.522Z,18.25
2023-02-11T18:46:36.905Z,16.40
2023-02-11T18:49:05.179Z,18.95
2023-02-11T18:51:33.483Z,17.23
2023-02-11T18:54:02.265Z,18.13
2023-02-11T18:56:30.739Z,17.17
2023-02-11T18:59:01.682Z,17.08
2023-02-11T19:01:33.694Z,18.27
2023-02-11T19:04:05.243Z,17.33
2023-02-11T19:06:36.399Z,18.73
2023-02-11T19:09:09.791Z,14.50
2023-02-11T19:11:50.183Z,16.70
2023-02-11T19:14:25.363Z,19.63
2023-02-11T19:16:59.296Z,17.73
2023-02-11T19:19:30.154Z,19.30
2023-02-11T19:24:29.900Z,21.48
2023-02-11T19:27:01.754Z,19.98
2023-02-11T19:29:34.934Z,16.67
2023-02-11T19:32:04.463Z,16.67
2023-02-11T19:34:33.220Z,20.40
2023-02-11T19:37:01.701Z,16.52
2023-02-11T19:39:30.097Z,18.27
2023-02-11T19:41:58.471Z,19.45
2023-02-11T19:44:27.060Z,17.42
2023-02-11T19:46:56.748Z,19.83
2023-02-11T19:49:26.330Z,18.05
2023-02-11T19:51:58.083Z,18.25
2023-02-11T19:54:29.027Z,21.20
2023-02-11T19:56:57.643Z,18.10
2023-02-11T19:59:26.287Z,16.60
2023-02-11T20:01:55.996Z,15.18
2023-02-11T20:04:25.134Z,13.55
2023-02-11T20:06:53.517Z,16.13
2023-02-11T20:09:22.776Z,14.80
2023-02-11T20:11:51.239Z,15.65
2023-02-11T20:14:19.698Z,15.85
2023-02-11T20:16:49.861Z,15.80
2023-02-11T20:19:22.693Z,15.65
2023-02-11T20:21:55.688Z,20.05
2023-02-11T20:24:24.960Z,16.85
2023-02-11T20:26:55.503Z,16.10
2023-02-11T20:29:25.256Z,14.93
2023-02-11T20:31:54.147Z,13.68
2023-02-11T20:34:24.992Z,15.38
2023-02-11T20:39:25.096Z,17.75
2023-02-11T20:41:54.832Z,17.30
2023-02-11T20:44:23.714Z,16.60
2023-02-11T20:46:54.334Z,15.10
2023-02-11T20:49:28.225Z,16.10
2023-02-11T20:51:58.380Z,18.58
2023-02-11T20:54:27.493Z,14.88
2023-02-11T20:56:57.033Z,20.95
2023-02-11T20:59:26.378Z,15.90
2023-02-11T21:01:57.174Z,16.27
2023-02-11T21:04:30.554Z,15.10
2023-02-11T21:07:01.053Z,16.20
2023-02-11T21:09:33.236Z,18.50
2023-02-11T21:12:02.881Z,18.98
2023-02-11T21:14:31.694Z,21.08
2023-02-11T21:17:00.219Z,19.27
2023-02-11T21:19:29.940Z,17.63
2023-02-11T21:22:00.746Z,20.93
2023-02-11T21:24:30.774Z,17.67
2023-02-11T21:26:59.191Z,18.67
2023-02-11T21:29:27.471Z,16.70
2023-02-11T21:31:56.026Z,17.13
2023-02-11T21:34:24.349Z,17.05
2023-02-11T21:36:54.170Z,20.65
2023-02-11T21:39:22.525Z,17.73
2023-02-11T21:41:51.606Z,16.67
2023-02-11T21:44:20.339Z,20.40
2023-02-11T21:46:49.112Z,19.58
2023-02-11T21:49:17.688Z,21.45
2023-02-11T21:51:45.996Z,18.27
2023-02-11T21:54:15.910Z,16.50
2023-02-11T21:56:44.204Z,15.32
2023-02-11T21:59:14.484Z,18.67
2023-02-11T22:01:43.080Z,15.80
2023-02-11T22:04:11.483Z,18.17
2023-02-11T22:06:40.475Z,20.58
2023-02-11T22:09:11.116Z,19.33
2023-02-11T22:14:09.353Z,19.52
2023-02-11T22:16:37.819Z,20.15
2023-02-11T22:19:07.428Z,22.10
2023-02-11T22:21:35.858Z,22.15
2023-02-11T22:24:04.192Z,19.60
2023-02-11T22:26:32.853Z,21.23
2023-02-11T22:29:02.510Z,20.08
2023-02-11T22:31:34.203Z,17.48
2023-02-11T22:34:04.265Z,19.75
2023-02-11T22:36:34.870Z,18.25
2023-02-11T22:39:06.109Z,17.23
2023-02-11T22:41:34.890Z,21.38
2023-02-11T22:44:04.732Z,20.50
2023-02-11T22:46:33.189Z,16.25
2023-02-11T22:49:01.496Z,18.95
2023-02-11T22:51:31.195Z,20.88
2023-02-11T22:54:02.729Z,18.10
2023-02-11T22:56:32.946Z,19.38
2023-02-11T22:59:06.109Z,21.30
2023-02-11T23:01:35.667Z,21.65
2023-02-11T23:04:06.726Z,18.10
2023-02-11T23:06:36.020Z,16.83
2023-02-11T23:09:05.678Z,16.38
2023-02-11T23:11:34.497Z,15.27
2023-02-11T23:14:05.330Z,15.73
2023-02-11T23:16:36.096Z,17.98
2023-02-11T23:21:37.619Z,18.55
2023-02-11T23:24:09.935Z,22.23
2023-02-11T23:26:39.944Z,17.52
2023-02-11T23:29:10.775Z,14.95
2023-02-11T23:31:41.270Z,18.42
2023-02-11T23:34:09.891Z,17.17
2023-02-11T23:36:38.933Z,16.27
2023-02-11T23:39:07.502Z,15.00
2023-02-11T23:41:35.839Z,18.33
2023-02-11T23:44:04.302Z,19.02
2023-02-11T23:46:34.003Z,22.85
2023-02-11T23:49:02.592Z,19.40
2023-02-11T23:51:31.205Z,18.70
2023-02-11T23:53:59.443Z,19.75
2023-02-11T23:56:29.218Z,20.90
2023-02-11T23:59:00.636Z,21.67
